Time;durP1;ratioP1;P1;durP2;ratioP2;P2;SDS_P1;SDS_P2;PMS_P1;PMS_P2;Temp;Humidity;BMP_temperature;BMP_pressure;BME280_temperature;BME280_humidity;BME280_pressure;Samples;Min_cycle;Max_cycle;Signal;HPM_P1;HPM_P2
2021/08/02 00:02:00;;;;;;;4.40;2.70;;;16.90;99.90;;;16.60;88.18;101169.47;4167398;28;20075;-75
2021/08/02 00:04:06;;;;;;;3.90;2.67;;;16.90;99.90;;;16.67;87.46;101166.88;4135758;28;20034;-75
2021/08/02 00:06:09;;;;;;;5.00;2.67;;;16.90;99.90;;;16.49;88.24;101154.75;4167756;28;20512;-75
2021/08/02 00:08:13;;;;;;;6.43;3.30;;;16.80;99.90;;;16.57;87.99;101162.69;4151830;28;20084;-75
2021/08/02 00:10:16;;;;;;;6.75;3.35;;;16.80;99.90;;;16.64;88.28;101162.75;4152042;28;20791;-75
2021/08/02 00:12:26;;;;;;;6.88;3.97;;;16.90;99.90;;;16.61;88.25;101171.13;4168007;28;20024;-75
2021/08/02 00:14:28;;;;;;;5.05;3.28;;;16.80;99.90;;;16.52;89.01;101170.34;4183761;28;20116;-76
2021/08/02 00:16:30;;;;;;;4.97;2.90;;;16.80;99.90;;;16.56;88.86;101154.88;4151511;28;20509;-76
2021/08/02 00:18:34;;;;;;;6.53;3.50;;;16.80;99.90;;;16.55;88.80;101162.03;4151413;28;20041;-75
2021/08/02 00:20:35;;;;;;;5.00;3.20;;;16.80;99.90;;;16.58;89.14;101158.16;4167885;28;20086;-75
2021/08/02 00:22:36;;;;;;;5.72;3.38;;;16.80;99.90;;;16.56;89.38;101158.38;4167795;28;20804;-75
2021/08/02 00:24:38;;;;;;;4.60;2.90;;;16.80;99.90;;;16.61;89.30;101163.13;4184337;28;20087;-75
2021/08/02 00:26:41;;;;;;;4.78;3.10;;;16.80;99.90;;;16.66;88.99;101152.75;4160269;28;20029;-75
2021/08/02 00:28:42;;;;;;;6.28;3.45;;;16.90;99.90;;;16.75;88.50;101162.31;4184464;28;20447;-75
2021/08/02 00:30:46;;;;;;;8.50;4.25;;;16.90;99.90;;;16.71;88.88;101153.03;4167611;28;20026;-75
2021/08/02 00:32:47;;;;;;;4.85;3.10;;;16.90;99.90;;;16.67;89.23;101158.88;4167936;28;20030;-75
2021/08/02 00:34:48;;;;;;;4.20;3.10;;;16.90;99.90;;;16.62;89.98;101155.97;4169126;28;20531;-75
2021/08/02 00:36:58;;;;;;;4.85;3.03;;;16.90;99.90;;;16.66;89.71;101150.09;4167261;28;20029;-75
2021/08/02 00:39:27;;;;;;;6.22;3.85;;;16.90;99.90;;;16.65;89.76;101147.59;4167947;28;20055;-76
2021/08/02 00:42:25;;;;;;;5.03;3.40;;;16.90;99.90;;;16.67;89.90;101158.88;4153779;28;20055;-75
2021/08/02 00:45:02;;;;;;;5.82;3.30;;;16.90;99.90;;;16.72;89.99;101160.00;4134279;28;20415;-76
2021/08/02 00:47:11;;;;;;;6.55;3.50;;;16.90;99.90;;;16.76;89.41;101150.63;4165596;28;20037;-76
2021/08/02 00:49:15;;;;;;;6.03;3.13;;;16.90;99.90;;;16.67;90.18;101158.88;4167478;28;20045;-75
2021/08/02 00:51:19;;;;;;;4.82;3.42;;;16.90;99.90;;;16.86;89.19;101153.00;4150976;28;20126;-75
2021/08/02 00:53:24;;;;;;;6.97;3.45;;;17.00;99.90;;;16.74;89.79;101151.81;4151002;28;20030;-75
2021/08/02 00:55:29;;;;;;;6.90;3.70;;;17.00;99.90;;;16.75;90.03;101158.81;4167418;28;20033;-75
2021/08/02 00:57:37;;;;;;;5.32;3.10;;;17.00;99.90;;;16.73;90.09;101150.16;4167102;28;20025;-75
2021/08/02 00:59:40;;;;;;;6.55;3.33;;;17.00;99.90;;;16.74;90.58;101162.47;4167635;28;20417;-75
2021/08/02 01:01:43;;;;;;;3.28;2.75;;;17.00;99.90;;;16.85;89.59;101159.31;4167488;28;20040;-75
2021/08/02 01:03:45;;;;;;;4.50;3.13;;;17.00;99.90;;;16.74;90.15;101160.66;4167380;28;20111;-75
2021/08/02 01:05:55;;;;;;;5.03;3.42;;;17.00;99.90;;;16.81;89.88;101166.06;4168263;28;20079;-75
2021/08/02 01:08:02;;;;;;;4.25;3.05;;;17.00;99.90;;;16.72;90.13;101153.84;4168298;28;20061;-75
2021/08/02 01:10:03;;;;;;;6.68;3.33;;;17.00;99.90;;;16.78;89.49;101147.78;4167400;28;20021;-75
2021/08/02 01:12:12;;;;;;;4.03;3.15;;;17.00;99.90;;;16.73;90.42;101153.66;4167202;28;20033;-75
2021/08/02 01:14:14;;;;;;;7.82;3.75;;;17.00;99.90;;;16.64;90.61;101157.44;4183483;28;20033;-75
2021/08/02 01:16:17;;;;;;;4.05;2.75;;;16.90;99.90;;;16.63;90.95;101153.13;4168519;28;20021;-75
2021/08/02 01:18:21;;;;;;;5.40;3.28;;;16.90;99.90;;;16.66;91.18;101149.28;4167350;28;20044;-75
2021/08/02 01:20:23;;;;;;;6.97;3.55;;;16.90;99.90;;;16.64;91.40;101148.59;4167134;28;20063;-75
2021/08/02 01:22:29;;;;;;;7.05;2.95;;;16.90;99.90;;;16.57;91.54;101143.22;4150942;28;20400;-75
2021/08/02 01:24:35;;;;;;;6.15;3.05;;;16.90;99.90;;;16.53;91.76;101139.22;4167224;28;20536;-75
2021/08/02 01:26:42;;;;;;;5.53;2.97;;;16.90;99.90;;;16.67;91.41;101149.06;4167245;28;20479;-75
2021/08/02 01:29:39;;;;;;;5.40;3.55;;;16.90;99.90;;;16.69;91.71;101155.06;4168170;28;20030;-75
2021/08/02 01:31:40;;;;;;;5.72;3.22;;;16.90;99.90;;;16.61;91.93;101151.66;4166907;28;20029;-75
2021/08/02 01:33:41;;;;;;;5.28;3.10;;;16.90;99.90;;;16.70;91.37;101145.19;4166978;28;20052;-75
2021/08/02 01:35:43;;;;;;;4.13;3.22;;;16.90;99.90;;;16.59;91.22;101138.53;4166943;28;20037;-75
2021/08/02 01:37:45;;;;;;;8.30;3.53;;;16.90;99.90;;;16.71;91.35;101144.19;4159287;28;20028;-75
2021/08/02 01:39:53;;;;;;;6.88;3.33;;;16.90;99.90;;;16.73;91.41;101147.50;4150889;28;20108;-75
2021/08/02 01:41:54;;;;;;;3.75;3.05;;;16.90;99.90;;;16.68;91.86;101147.22;4168422;28;20034;-75
2021/08/02 01:43:55;;;;;;;6.32;3.03;;;16.90;99.90;;;16.72;91.62;101153.84;4167004;28;20135;-76
2021/08/02 01:46:16;;;;;;;5.90;3.30;;;16.90;99.90;;;16.87;90.64;101152.81;4168233;28;20038;-75
2021/08/02 01:48:23;;;;;;;8.20;3.80;;;17.00;99.90;;;16.86;90.73;101147.66;4151829;28;20052;-75
2021/08/02 01:50:48;;;;;;;4.28;3.22;;;17.00;99.90;;;16.79;91.02;101142.25;4167877;28;20091;-75
2021/08/02 01:53:09;;;;;;;5.70;3.75;;;17.00;99.90;;;16.78;91.11;101137.97;4168057;28;20017;-75
2021/08/02 01:55:19;;;;;;;6.60;3.65;;;16.90;99.90;;;16.77;91.19;101143.47;4167137;28;20833;-75
2021/08/02 01:57:45;;;;;;;5.03;3.05;;;17.00;99.90;;;16.73;91.75;101144.84;4167146;28;20029;-75
2021/08/02 02:00:14;;;;;;;4.30;3.17;;;17.00;99.90;;;16.68;91.82;101150.72;4167886;28;20115;-75
2021/08/02 02:02:18;;;;;;;3.38;2.58;;;16.90;99.90;;;16.71;91.92;101144.19;4160575;28;20042;-75
2021/08/02 02:04:35;;;;;;;6.57;3.30;;;16.90;99.90;;;16.67;92.01;101145.56;4166791;28;20041;-75
2021/08/02 02:06:44;;;;;;;5.70;3.00;;;16.90;99.90;;;16.70;91.68;101145.19;4151769;28;20076;-76
2021/08/02 02:08:58;;;;;;;7.72;3.75;;;16.90;99.90;;;16.81;91.04;101150.06;4166720;28;20116;-75
2021/08/02 02:11:02;;;;;;;5.35;3.45;;;16.90;99.90;;;16.71;91.36;101145.03;4169830;28;20079;-75
2021/08/02 02:13:03;;;;;;;8.18;4.53;;;16.90;99.90;;;16.75;91.68;101151.66;4169885;28;20033;-75
2021/08/02 02:15:05;;;;;;;6.78;3.05;;;16.90;99.90;;;16.74;91.66;101147.31;4169830;28;20101;-75
2021/08/02 02:17:09;;;;;;;6.95;3.85;;;16.90;99.90;;;16.64;91.69;101146.78;4186267;28;20036;-76
2021/08/02 02:19:11;;;;;;;5.43;2.92;;;16.90;99.90;;;16.64;92.33;101145.94;4169606;28;20018;-75
2021/08/02 02:21:13;;;;;;;6.78;3.72;;;16.90;99.90;;;16.56;92.42;101149.53;4169416;28;20022;-75
2021/08/02 02:23:16;;;;;;;5.43;3.50;;;16.80;99.90;;;16.57;92.71;101149.38;4186134;28;20028;-75
2021/08/02 02:25:17;;;;;;;7.57;4.00;;;16.90;99.90;;;16.64;92.20;101151.28;4169546;28;20029;-75
2021/08/02 02:27:19;;;;;;;7.07;3.75;;;16.90;99.90;;;16.51;92.79;101142.09;4170279;28;20115;-75
2021/08/02 02:29:21;;;;;;;5.95;3.40;;;16.80;99.90;;;16.61;92.27;101149.00;4169621;28;20114;-75
2021/08/02 02:31:24;;;;;;;5.45;3.55;;;16.80;99.90;;;16.55;92.64;101140.72;4169538;28;20021;-75
2021/08/02 02:33:31;;;;;;;8.00;3.97;;;16.80;99.90;;;16.55;92.86;101146.06;4169423;28;20540;-75
2021/08/02 02:35:33;;;;;;;5.75;3.28;;;16.80;99.90;;;16.59;92.84;101143.84;4169188;28;20030;-75
2021/08/02 02:37:34;;;;;;;5.85;3.00;;;16.80;99.90;;;16.58;92.79;101145.69;4169480;28;20463;-75
2021/08/02 02:39:37;;;;;;;7.30;3.75;;;16.80;99.90;;;16.57;92.87;101144.06;4185980;28;20551;-75
2021/08/02 02:41:40;;;;;;;6.40;3.50;;;16.80;99.90;;;16.57;93.13;101144.06;4169324;28;20029;-75
2021/08/02 02:43:42;;;;;;;5.28;3.50;;;16.80;99.90;;;16.56;93.06;101145.06;4169392;28;20115;-75
2021/08/02 02:45:46;;;;;;;5.93;3.75;;;16.80;99.90;;;16.60;92.41;101140.19;4169396;28;20040;-75
2021/08/02 02:47:48;;;;;;;4.60;3.30;;;16.80;99.90;;;16.61;92.63;101146.34;4170496;28;20029;-75
2021/08/02 02:49:50;;;;;;;6.65;3.72;;;16.80;99.90;;;16.56;93.04;101150.38;4152861;28;20034;-75
2021/08/02 02:51:51;;;;;;;9.65;3.45;;;16.80;99.90;;;16.61;92.93;101157.00;4169079;28;20103;-75
2021/08/02 02:53:53;;;;;;;5.93;3.20;;;16.80;99.90;;;16.48;93.32;101145.13;4169611;28;20030;-75
2021/08/02 02:55:57;;;;;;;5.88;3.35;;;16.80;99.90;;;16.57;92.89;101146.72;4169234;28;20021;-75
2021/08/02 02:57:59;;;;;;;5.55;3.47;;;16.80;99.90;;;16.56;93.21;101150.38;4169085;28;20032;-75
2021/08/02 02:59:59;;;;;;;4.45;3.72;;;16.80;99.90;;;16.54;93.47;101155.06;4170469;28;20509;-75
2021/08/02 03:02:02;;;;;;;6.20;3.97;;;16.70;99.90;;;16.55;93.18;101143.38;4169237;28;20030;-75
2021/08/02 03:04:05;;;;;;;6.63;2.92;;;16.80;99.90;;;16.55;93.28;101147.88;4170473;28;20029;-75
2021/08/02 03:06:07;;;;;;;6.07;3.75;;;16.70;99.90;;;16.55;93.23;101153.22;4168561;28;20061;-75
2021/08/02 03:08:09;;;;;;;7.07;4.00;;;16.70;99.90;;;16.66;93.03;101154.59;4169044;28;20089;-75
2021/08/02 03:10:12;;;;;;;6.88;3.67;;;16.70;99.90;;;16.66;92.56;101142.09;4161767;28;20611;-75
2021/08/02 03:12:14;;;;;;;7.30;3.97;;;16.80;99.90;;;16.61;92.95;101147.16;4168963;28;20022;-75
2021/08/02 03:14:16;;;;;;;6.47;3.40;;;16.80;99.90;;;16.54;93.46;101146.25;4168824;28;20268;-75
2021/08/02 03:16:22;;;;;;;8.52;3.53;;;16.80;99.90;;;16.45;93.29;101156.16;4185348;28;20029;-75
2021/08/02 03:18:24;;;;;;;4.60;3.08;;;16.70;99.90;;;16.43;94.13;101154.66;4152741;28;20087;-75
2021/08/02 03:20:25;;;;;;;5.60;3.83;;;16.70;99.90;;;16.49;93.94;101153.91;4151398;28;20537;-75
2021/08/02 03:22:46;;;;;;;7.40;3.65;;;16.70;99.90;;;16.49;93.78;101154.75;4167065;28;20029;-75
2021/08/02 03:24:51;;;;;;;5.15;3.50;;;16.70;99.90;;;16.53;93.73;101164.03;4153692;28;20101;-75
2021/08/02 03:27:02;;;;;;;7.18;3.90;;;16.80;99.90;;;16.48;93.91;101166.44;4201773;28;20486;-76
2021/08/02 03:29:26;;;;;;;8.13;4.00;;;16.80;99.90;;;16.43;94.44;101160.81;4185226;28;20036;-75
2021/08/02 03:31:49;;;;;;;9.07;4.07;;;16.80;99.90;;;16.57;93.74;101162.69;4162897;28;20071;-75
2021/08/02 03:33:54;;;;;;;5.53;3.63;;;16.70;99.90;;;16.56;93.46;101158.38;4168647;28;20076;-75
2021/08/02 03:35:58;;;;;;;5.20;3.42;;;16.80;99.90;;;16.58;93.40;101163.50;4152136;28;20058;-75
2021/08/02 03:38:00;;;;;;;6.90;4.20;;;16.80;99.90;;;16.48;94.06;101157.59;4152164;28;20032;-75
2021/08/02 03:40:04;;;;;;;6.22;3.40;;;16.70;99.90;;;16.50;94.07;101158.25;4168544;28;20029;-75
2021/08/02 03:42:07;;;;;;;7.13;3.50;;;16.70;99.90;;;16.62;93.44;101161.28;4168418;28;20033;-75
2021/08/02 03:44:13;;;;;;;5.60;3.03;;;16.70;99.90;;;16.58;93.38;101151.00;4168680;28;20081;-75
2021/08/02 03:46:16;;;;;;;6.88;3.80;;;16.80;99.90;;;16.63;93.03;101157.63;4151912;28;20535;-75
2021/08/02 03:48:20;;;;;;;5.05;2.95;;;16.80;99.90;;;16.53;93.82;101150.72;4168292;28;20095;-75
2021/08/02 03:50:20;;;;;;;6.38;3.22;;;16.80;99.90;;;16.57;93.93;101162.69;4169491;28;20026;-75
2021/08/02 03:52:21;;;;;;;5.28;3.40;;;16.80;99.90;;;16.58;94.15;101164.31;4168421;28;20032;-75
2021/08/02 03:54:25;;;;;;;4.68;3.33;;;16.80;99.90;;;16.50;93.97;101156.41;4184954;28;20033;-75
2021/08/02 03:56:26;;;;;;;4.70;3.22;;;16.80;99.90;;;16.56;94.02;101166.34;4168494;28;20029;-75
2021/08/02 03:58:27;;;;;;;5.97;3.15;;;16.80;99.90;;;16.51;94.11;101159.91;4168340;28;20137;-75
2021/08/02 04:00:28;;;;;;;4.07;2.92;;;16.80;99.90;;;16.49;94.42;101165.41;4168212;28;20070;-75
2021/08/02 04:02:29;;;;;;;4.10;2.72;;;16.80;99.90;;;16.50;94.40;101164.41;4169375;28;20025;-75
2021/08/02 04:04:30;;;;;;;5.97;3.58;;;16.80;99.90;;;16.51;94.33;101174.06;4168075;28;20033;-75
2021/08/02 04:06:31;;;;;;;8.18;3.47;;;16.80;99.90;;;16.48;94.00;101166.44;4184506;28;20029;-76
2021/08/02 04:08:32;;;;;;;6.22;3.45;;;16.70;99.90;;;16.51;93.99;101174.06;4168058;28;20032;-76
2021/08/02 04:10:33;;;;;;;5.25;3.40;;;16.80;99.90;;;16.52;93.34;101164.19;4151634;28;20022;-76
2021/08/02 04:12:34;;;;;;;7.70;3.53;;;16.80;99.90;;;16.40;93.91;101161.19;4165632;28;20060;-75
2021/08/02 04:14:37;;;;;;;6.82;4.13;;;16.80;99.90;;;16.51;94.03;101168.72;4168108;28;20021;-75
2021/08/02 04:16:39;;;;;;;5.93;2.95;;;16.70;99.90;;;16.60;93.88;101174.81;4168115;28;20033;-75
2021/08/02 04:18:40;;;;;;;5.93;2.95;;;16.70;99.90;;;16.59;93.62;101173.16;4168026;28;20072;-75
2021/08/02 04:20:43;;;;;;;7.20;3.65;;;16.80;99.90;;;16.40;94.02;101163.00;4167636;28;20085;-75
2021/08/02 04:22:47;;;;;;;5.70;3.40;;;16.80;99.90;;;16.47;94.58;101177.25;4167998;28;20416;-75
2021/08/02 04:24:48;;;;;;;10.20;3.70;;;16.70;99.90;;;16.62;93.59;101164.78;4151482;28;20464;-75
2021/08/02 04:26:49;;;;;;;4.97;3.22;;;16.70;99.90;;;16.63;93.65;101176.28;4162621;28;20113;-75
2021/08/02 04:28:56;;;;;;;4.82;3.63;;;16.80;99.90;;;16.67;92.80;101172.22;4168758;28;20152;-75
2021/08/02 04:30:57;;;;;;;5.10;3.35;;;16.80;99.90;;;16.53;93.53;101158.69;4168854;28;20078;-75
2021/08/02 04:32:58;;;;;;;7.85;3.75;;;16.80;99.90;;;16.62;93.87;101163.97;4167356;28;20093;-75
2021/08/02 04:34:58;;;;;;;4.72;3.00;;;16.80;99.90;;;16.53;94.03;101161.38;4167304;28;20095;-75
2021/08/02 04:36:59;;;;;;;6.30;3.20;;;16.80;99.90;;;16.41;94.42;101162.84;4184071;28;20049;-75
2021/08/02 04:39:01;;;;;;;6.18;3.38;;;16.70;99.90;;;16.52;94.19;101182.84;4167725;28;20089;-75
2021/08/02 04:41:02;;;;;;;6.22;3.80;;;16.80;99.90;;;16.53;93.64;101164.03;4169074;28;20026;-75
2021/08/02 04:43:03;;;;;;;7.75;3.70;;;16.70;99.90;;;16.57;93.78;101180.50;4167624;28;20048;-75
2021/08/02 04:45:06;;;;;;;6.25;3.80;;;16.80;99.90;;;16.63;93.77;101185.09;4183853;28;20559;-75
2021/08/02 04:47:07;;;;;;;6.25;3.65;;;16.80;99.90;;;16.61;93.66;101183.63;4151417;28;20030;-75
2021/08/02 04:49:08;;;;;;;5.72;3.53;;;16.80;99.90;;;16.53;94.11;101174.69;4167619;28;20060;-75
2021/08/02 04:51:09;;;;;;;8.48;4.43;;;16.80;99.90;;;16.53;93.44;101172.03;4168355;28;20038;-75
2021/08/02 04:53:11;;;;;;;8.73;3.70;;;16.80;99.90;;;16.48;93.62;101185.06;4151125;28;20022;-75
2021/08/02 04:55:12;;;;;;;5.40;3.80;;;16.80;99.90;;;16.44;94.25;101175.78;4167541;28;20025;-76
2021/08/02 04:57:12;;;;;;;5.40;3.80;;;16.70;99.90;;;16.51;94.25;101183.88;4167690;28;20028;-75
2021/08/02 04:59:13;;;;;;;5.38;3.10;;;16.70;99.90;;;16.43;94.50;101176.78;4161738;28;20022;-75
2021/08/02 05:01:14;;;;;;;5.88;3.55;;;16.80;99.90;;;16.38;94.96;101178.34;4200151;28;20052;-76
2021/08/02 05:03:15;;;;;;;4.57;3.38;;;16.70;99.90;;;16.43;94.69;101190.09;4151287;28;20034;-75
2021/08/02 05:05:16;;;;;;;4.18;2.97;;;16.80;99.90;;;16.56;94.38;101195.66;4183536;28;20095;-76
2021/08/02 05:07:17;;;;;;;5.63;3.95;;;16.70;99.90;;;16.50;93.41;101179.53;4168436;28;20033;-76
2021/08/02 05:09:18;;;;;;;7.40;3.45;;;16.80;99.90;;;16.45;94.16;101195.25;4168398;28;20079;-76
2021/08/02 05:11:19;;;;;;;5.15;3.38;;;16.80;99.90;;;16.49;94.67;101201.84;4168551;28;20029;-75
2021/08/02 05:13:20;;;;;;;5.57;3.70;;;16.80;99.90;;;16.44;94.81;101193.59;4168553;28;20022;-76
2021/08/02 05:15:21;;;;;;;5.65;3.65;;;16.80;99.90;;;16.39;94.88;101188.84;4168505;28;20053;-76
2021/08/02 05:17:22;;;;;;;5.22;2.97;;;16.80;99.90;;;16.37;94.84;101179.34;4168380;28;20026;-75
2021/08/02 05:19:22;;;;;;;7.68;4.65;;;16.70;99.90;;;16.53;94.53;101198.66;4167176;28;20515;-76
2021/08/02 05:21:23;;;;;;;4.90;2.80;;;16.80;99.90;;;16.50;94.54;101191.03;4173540;28;20055;-76
2021/08/02 05:23:24;;;;;;;6.57;3.03;;;16.80;99.90;;;16.53;94.30;101185.34;4167147;28;20022;-77
2021/08/02 05:25:25;;;;;;;5.78;3.85;;;16.80;99.90;;;16.48;94.40;101198.38;4168298;28;20034;-77
2021/08/02 05:27:26;;;;;;;5.13;2.78;;;16.80;99.90;;;16.52;94.54;101194.31;4167063;28;20053;-76
2021/08/02 05:29:27;;;;;;;4.68;3.58;;;16.90;99.90;;;16.57;94.35;101193.81;4167062;28;20690;-75
2021/08/02 05:31:28;;;;;;;5.93;3.65;;;16.90;99.90;;;16.54;94.11;101183.53;4167351;28;20026;-75
2021/08/02 05:33:29;;;;;;;5.28;3.30;;;16.90;99.90;;;16.54;94.51;101186.19;4200317;28;20029;-76
2021/08/02 05:35:31;;;;;;;4.50;3.35;;;16.90;99.90;;;16.54;94.39;101184.38;4166719;28;20063;-75
2021/08/02 05:37:31;;;;;;;4.43;3.53;;;16.90;99.90;;;16.58;94.13;101182.97;4173881;28;20574;-76
2021/08/02 05:39:32;;;;;;;6.65;3.70;;;17.00;99.90;;;16.71;93.75;101195.66;4167434;28;20030;-75
2021/08/02 05:41:34;;;;;;;5.15;3.55;;;17.00;99.90;;;16.67;93.59;101173.03;4147190;28;20038;-76
2021/08/02 05:43:35;;;;;;;6.30;3.17;;;17.00;99.90;;;16.70;93.58;101182.50;4150475;28;20038;-75
2021/08/02 05:45:36;;;;;;;5.65;3.45;;;17.10;99.90;;;16.74;93.20;101187.28;4171644;28;20520;-75
2021/08/02 05:47:39;;;;;;;4.53;2.83;;;17.10;99.90;;;16.69;93.40;101180.88;4171716;28;20029;-75
2021/08/02 05:49:40;;;;;;;4.55;2.72;;;17.10;99.90;;;16.77;93.22;101191.41;4171844;28;20064;-75
2021/08/02 05:51:41;;;;;;;5.05;3.30;;;17.10;99.90;;;16.75;93.35;101183.63;4170385;28;20104;-76
2021/08/02 05:53:42;;;;;;;4.90;3.05;;;17.10;99.90;;;16.81;92.94;101188.22;4187036;28;20025;-75
2021/08/02 05:55:43;;;;;;;8.00;4.00;;;17.20;99.90;;;16.85;92.37;101186.81;4170567;28;20021;-75
2021/08/02 05:57:44;;;;;;;6.45;3.63;;;17.20;99.90;;;16.78;92.69;101182.41;4170318;28;20586;-76
2021/08/02 05:59:45;;;;;;;4.90;3.30;;;17.20;99.90;;;16.86;92.69;101192.97;4169855;28;20485;-75
2021/08/02 06:01:46;;;;;;;5.15;3.08;;;17.30;99.90;;;16.96;92.11;101189.00;4168343;28;20108;-76
2021/08/02 06:03:47;;;;;;;6.13;3.08;;;17.30;99.90;;;17.02;91.90;101198.91;4174367;28;20093;-76
2021/08/02 06:05:48;;;;;;;6.03;3.33;;;17.30;99.90;;;17.05;91.90;101205.72;4178167;28;20404;-75
2021/08/02 06:07:49;;;;;;;7.97;3.45;;;17.40;99.90;;;16.98;92.13;101186.16;4171929;28;20056;-76
2021/08/02 06:09:51;;;;;;;5.93;3.10;;;17.40;99.90;;;17.08;91.87;101200.03;4153684;28;20076;-76
2021/08/02 06:11:52;;;;;;;5.05;2.97;;;17.50;99.90;;;17.13;92.22;101202.94;4186110;28;20024;-76
2021/08/02 06:13:52;;;;;;;4.32;3.10;;;17.50;99.90;;;17.32;90.94;101209.53;4171089;28;20100;-76
2021/08/02 06:15:53;;;;;;;7.95;3.75;;;17.60;99.90;;;17.22;91.34;101212.47;4170040;28;20049;-76
2021/08/02 06:17:54;;;;;;;5.82;3.03;;;17.70;99.90;;;17.18;91.78;101208.53;4153950;28;20034;-76
2021/08/02 06:19:55;;;;;;;4.82;3.60;;;17.60;99.90;;;17.17;92.15;101214.91;4169843;28;20067;-76
2021/08/02 06:21:56;;;;;;;5.72;3.40;;;17.70;99.90;;;17.29;91.86;101215.22;4186373;28;20067;-76
2021/08/02 06:23:57;;;;;;;4.80;2.90;;;17.70;99.90;;;17.23;92.35;101203.47;4169666;28;20036;-76
2021/08/02 06:25:58;;;;;;;7.85;4.28;;;17.70;99.90;;;17.31;91.89;101211.34;4169904;28;20025;-76
2021/08/02 06:27:59;;;;;;;6.85;3.20;;;17.80;99.90;;;17.38;90.96;101208.75;4171223;28;20029;-76
2021/08/02 06:30:01;;;;;;;4.15;3.28;;;17.80;99.90;;;17.50;90.18;101221.41;4169993;28;20025;-76
2021/08/02 06:32:03;;;;;;;5.18;3.58;;;17.80;99.90;;;17.43;89.80;101217.03;4153146;28;20030;-74
2021/08/02 06:34:03;;;;;;;6.80;3.25;;;17.80;99.90;;;17.40;90.42;101226.22;4164762;28;20092;-74
2021/08/02 06:36:05;;;;;;;3.75;3.30;;;17.80;99.90;;;17.41;90.63;101219.06;4150393;28;20053;-74
2021/08/02 06:38:06;;;;;;;5.00;3.53;;;17.80;99.90;;;17.42;90.82;101218.84;4184210;28;20506;-74
2021/08/02 06:40:12;;;;;;;4.30;3.67;;;17.80;99.90;;;17.45;90.52;101215.81;4154964;28;20037;-74
2021/08/02 06:42:14;;;;;;;4.90;3.03;;;17.90;99.90;;;17.51;90.52;101219.56;4181891;28;20107;-74
2021/08/02 06:44:15;;;;;;;4.75;3.28;;;18.00;99.90;;;17.56;90.37;101218.00;4168197;28;20432;-74
2021/08/02 06:46:16;;;;;;;4.75;3.08;;;18.00;99.90;;;17.53;90.41;101222.88;4167793;28;20029;-74
2021/08/02 06:48:17;;;;;;;5.30;3.78;;;18.00;99.90;;;17.58;90.09;101231.16;4150726;28;20045;-74
2021/08/02 06:50:18;;;;;;;4.20;3.20;;;18.00;99.90;;;17.64;89.74;101231.25;4149974;28;20022;-74
2021/08/02 06:52:19;;;;;;;4.70;3.05;;;18.10;99.90;;;17.74;89.41;101235.44;4167737;28;20025;-74
2021/08/02 06:54:20;;;;;;;4.70;3.15;;;18.10;99.90;;;17.73;89.48;101233.78;4166076;28;20059;-74
2021/08/02 06:56:21;;;;;;;4.78;3.17;;;18.10;99.90;;;17.68;89.83;101219.16;4167286;28;20024;-74
2021/08/02 06:58:22;;;;;;;5.82;3.33;;;18.10;99.90;;;17.82;89.13;101224.63;4167745;28;20079;-74
2021/08/02 07:00:23;;;;;;;6.35;3.50;;;18.20;99.90;;;17.83;88.59;101227.09;4166219;28;20045;-75
2021/08/02 07:02:24;;;;;;;6.65;4.00;;;18.20;99.90;;;17.79;89.15;101233.00;4183187;28;20029;-74
2021/08/02 07:04:25;;;;;;;8.45;4.15;;;18.20;99.90;;;17.80;88.75;101235.47;4185287;28;20060;-75
2021/08/02 07:06:26;;;;;;;7.05;3.47;;;18.20;99.90;;;17.75;89.25;101227.22;4152508;28;20029;-76
2021/08/02 07:08:27;;;;;;;6.63;3.47;;;18.20;99.90;;;17.68;88.63;101229.81;4169859;28;20040;-75
2021/08/02 07:10:28;;;;;;;5.22;3.08;;;18.10;99.90;;;17.66;89.02;101234.53;4168828;28;20025;-75
2021/08/02 07:12:29;;;;;;;7.75;4.03;;;18.10;99.90;;;17.52;88.70;101226.56;4168111;28;20033;-76
2021/08/02 07:14:30;;;;;;;7.65;4.22;;;18.10;99.90;;;17.46;88.61;101228.13;4169601;28;20076;-75
2021/08/02 07:16:30;;;;;;;5.13;3.47;;;18.00;99.90;;;17.50;89.23;101233.94;4168860;28;20366;-75
2021/08/02 07:18:33;;;;;;;4.80;3.58;;;18.00;99.90;;;17.50;89.22;101231.25;4168771;28;20057;-74
2021/08/02 07:20:35;;;;;;;4.55;3.42;;;18.00;99.90;;;17.58;89.38;101239.16;4169642;28;20021;-75
2021/08/02 07:22:35;;;;;;;4.85;3.42;;;18.00;99.90;;;17.65;89.34;101232.06;4168027;28;20081;-75
2021/08/02 07:24:36;;;;;;;5.50;3.65;;;18.10;99.90;;;17.61;89.30;101222.78;4169608;28;20047;-75
2021/08/02 07:26:37;;;;;;;8.52;3.35;;;18.10;99.90;;;17.71;89.19;101230.47;4169824;28;20037;-75
2021/08/02 07:28:38;;;;;;;6.45;4.85;;;18.20;99.90;;;17.85;87.16;101225.06;4169520;28;20033;-75
2021/08/02 07:30:39;;;;;;;7.88;4.53;;;18.20;99.90;;;17.75;87.38;101229.06;4152074;28;20464;-75
2021/08/02 07:32:40;;;;;;;7.10;4.10;;;18.20;99.90;;;17.84;86.61;101226.06;4169027;28;20025;-76
2021/08/02 07:34:41;;;;;;;8.68;4.03;;;18.20;99.90;;;17.89;85.87;101226.31;4169820;28;20057;-74
2021/08/02 07:36:42;;;;;;;6.07;3.58;;;18.30;99.90;;;17.89;86.35;101228.19;4168566;28;20017;-75
2021/08/02 07:38:44;;;;;;;7.20;3.67;;;18.30;99.90;;;17.82;86.75;101227.28;4168819;28;20401;-75
2021/08/02 07:40:45;;;;;;;5.03;3.72;;;18.30;99.90;;;18.00;86.26;101246.34;4170128;28;20033;-75
2021/08/02 07:42:46;;;;;;;4.10;2.70;;;18.40;99.90;;;18.06;85.99;101240.25;4169674;28;20029;-74
2021/08/02 07:44:47;;;;;;;6.97;3.53;;;18.50;99.90;;;18.16;84.32;101238.03;4168552;28;20084;-75
2021/08/02 07:46:48;;;;;;;4.85;3.63;;;18.60;99.90;;;18.10;84.52;101236.16;4184999;28;20031;-75
2021/08/02 07:48:52;;;;;;;4.05;2.67;;;18.60;99.90;;;18.22;84.09;101242.63;4168554;28;20064;-75
2021/08/02 07:50:53;;;;;;;3.78;2.75;;;18.70;99.90;;;18.16;83.61;101244.22;4168334;28;20021;-74
2021/08/02 07:52:53;;;;;;;4.32;2.88;;;18.70;99.90;;;18.32;81.79;101240.44;4169419;28;20515;-74
2021/08/02 07:54:54;;;;;;;3.90;2.97;;;18.80;99.90;;;18.31;82.58;101238.78;4168382;28;20608;-75
2021/08/02 07:56:55;;;;;;;5.68;3.33;;;18.80;99.90;;;18.25;83.27;101247.56;4185030;28;20118;-75
2021/08/02 07:58:57;;;;;;;6.65;3.22;;;18.80;99.90;;;18.23;83.24;101257.63;4168400;28;20025;-74
2021/08/02 08:00:57;;;;;;;6.18;2.88;;;18.80;99.90;;;18.19;83.34;101243.00;4169532;28;20636;-74
2021/08/02 08:02:58;;;;;;;4.72;3.00;;;18.80;99.90;;;18.25;83.36;101245.72;4167991;28;20053;-75
2021/08/02 08:04:59;;;;;;;5.22;3.13;;;18.90;99.90;;;18.32;83.41;101248.47;4184533;28;20029;-74
2021/08/02 08:07:00;;;;;;;6.18;3.47;;;18.90;99.90;;;18.39;83.38;101245.84;4151260;28;20108;-74
2021/08/02 08:09:01;;;;;;;8.13;3.50;;;19.00;99.90;;;18.46;83.40;101249.38;4162976;28;20377;-74
2021/08/02 08:11:02;;;;;;;5.72;3.75;;;19.10;99.90;;;18.55;82.95;101256.25;4184579;28;20025;-75
2021/08/02 08:13:03;;;;;;;6.00;3.30;;;19.20;99.90;;;18.66;82.87;101247.72;4168160;28;20166;-75
2021/08/02 08:15:05;;;;;;;4.07;2.95;;;19.30;99.90;;;18.86;80.44;101255.81;4160477;28;20475;-75
2021/08/02 08:17:06;;;;;;;5.85;3.22;;;19.40;99.90;;;18.82;80.95;101251.91;4167923;28;20590;-74
2021/08/02 08:19:07;;;;;;;6.03;3.40;;;19.50;99.90;;;18.88;81.29;101253.78;4168009;28;20504;-75
2021/08/02 08:21:08;;;;;;;6.90;3.50;;;19.50;99.90;;;18.97;80.49;101244.56;4184335;28;20036;-74
2021/08/02 08:23:09;;;;;;;7.47;4.47;;;19.60;99.90;;;18.95;80.89;101239.44;4151672;28;20030;-74
2021/08/02 08:25:11;;;;;;;7.63;4.50;;;19.80;99.90;;;19.19;78.55;101254.13;4165594;28;20444;-75
2021/08/02 08:27:11;;;;;;;7.38;4.00;;;19.90;99.90;;;19.12;79.01;101246.09;4167881;28;20036;-75
2021/08/02 08:29:12;;;;;;;6.45;4.20;;;20.00;99.90;;;19.29;79.14;101238.56;4184537;28;20033;-74
2021/08/02 08:31:13;;;;;;;6.53;3.67;;;20.10;99.90;;;19.38;78.99;101234.66;4169287;28;20021;-75
2021/08/02 08:33:14;;;;;;;5.18;3.60;;;20.30;99.90;;;19.54;78.12;101245.03;4169102;28;20029;-74
2021/08/02 08:35:15;;;;;;;6.18;4.05;;;20.30;99.90;;;19.49;77.81;101227.94;4167367;28;20033;-74